Time;durP1;ratioP1;P1;durP2;ratioP2;P2;SDS_P1;SDS_P2;PMS_P1;PMS_P2;Temp;Humidity;BMP_temperature;BMP_pressure;BME280_temperature;BME280_humidity;BME280_pressure;Samples;Min_cycle;Max_cycle;Signal;HPM_P1;HPM_P2
2020/12/04 00:00:10;;;;;;;8.70;5.73;;;;;;;;;;4363491;32;20204;-77
2020/12/04 00:02:35;;;;;;;8.63;5.90;;;;;;;;;;4363426;32;20155;-77
2020/12/04 00:05:01;;;;;;;9.87;5.93;;;;;;;;;;4377567;32;20209;-77
2020/12/04 00:07:26;;;;;;;9.87;5.50;;;;;;;;;;4377442;32;20192;-77
2020/12/04 00:09:51;;;;;;;8.27;5.70;;;;;;;;;;4377591;32;20163;-77
2020/12/04 00:12:17;;;;;;;7.90;5.60;;;;;;;;;;4363403;32;20242;-78
2020/12/04 00:14:42;;;;;;;7.83;5.50;;;;;;;;;;4377049;32;20132;-77
2020/12/04 00:17:08;;;;;;;8.67;5.90;;;;;;;;;;4376910;32;20166;-78
2020/12/04 00:19:33;;;;;;;9.13;6.00;;;;;;;;;;4376796;32;20146;-78
2020/12/04 00:21:58;;;;;;;7.87;5.87;;;;;;;;;;4363217;32;20166;-78
2020/12/04 00:24:24;;;;;;;7.40;5.30;;;;;;;;;;4376426;32;20135;-78
2020/12/04 00:26:49;;;;;;;8.70;5.87;;;;;;;;;;4376633;32;20147;-78
2020/12/04 00:29:15;;;;;;;8.73;6.00;;;;;;;;;;4376579;32;20128;-77
2020/12/04 00:31:40;;;;;;;9.03;6.10;;;;;;;;;;4363013;32;20185;-78
2020/12/04 00:34:05;;;;;;;8.10;5.90;;;;;;;;;;4377440;32;20127;-78
2020/12/04 00:36:34;;;;;;;7.60;5.80;;;;;;;;;;4362930;32;20220;-78
2020/12/04 00:38:59;;;;;;;8.23;5.70;;;;;;;;;;4363018;32;20155;-78
2020/12/04 00:41:24;;;;;;;8.00;5.67;;;;;;;;;;4362947;32;20159;-78
2020/12/04 00:43:50;;;;;;;7.57;5.20;;;;;;;;;;4362974;32;20182;-78
2020/12/04 00:46:16;;;;;;;7.10;5.47;;;;;;;;;;4376407;32;20146;-78
2020/12/04 00:48:42;;;;;;;8.03;5.53;;;;;;;;;;4363160;32;20166;-78
2020/12/04 00:51:07;;;;;;;7.30;5.67;;;;;;;;;;4376853;32;20161;-78
2020/12/04 00:53:32;;;;;;;8.30;4.83;;;;;;;;;;4376944;32;20155;-78
2020/12/04 00:55:58;;;;;;;7.07;5.13;;;;;;;;;;4363126;32;20155;-78
2020/12/04 00:58:23;;;;;;;7.87;5.83;;;;;;;;;;4376810;32;20174;-79
2020/12/04 01:00:51;;;;;;;6.93;5.10;;;;;;;;;;4362951;32;20147;-78
2020/12/04 01:03:17;;;;;;;7.07;5.50;;;;;;;;;;4363463;32;20147;-79
2020/12/04 01:05:42;;;;;;;7.70;4.87;;;;;;;;;;4362801;32;20283;-79
2020/12/04 01:08:07;;;;;;;5.97;5.10;;;;;;;;;;4363079;32;20185;-79
2020/12/04 01:10:38;;;;;;;7.67;5.10;;;;;;;;;;4376419;32;20131;-79
2020/12/04 01:13:03;;;;;;;6.87;4.87;;;;;;;;;;4362747;32;20245;-79
2020/12/04 01:15:39;;;;;;;6.53;4.90;;;;;;;;;;4376436;32;20131;-79
2020/12/04 01:18:05;;;;;;;6.33;5.00;;;;;;;;;;4362885;32;20158;-79
2020/12/04 01:20:30;;;;;;;6.20;4.87;;;;;;;;;;4362322;32;20155;-79
2020/12/04 01:22:55;;;;;;;6.00;4.67;;;;;;;;;;4362794;32;20511;-79
2020/12/04 01:25:21;;;;;;;5.93;4.90;;;;;;;;;;4363346;32;20158;-78
2020/12/04 01:27:46;;;;;;;6.17;4.83;;;;;;;;;;4362657;32;20492;-79
2020/12/04 01:30:14;;;;;;;7.17;4.77;;;;;;;;;;4375832;32;20197;-79
2020/12/04 01:32:40;;;;;;;7.07;4.73;;;;;;;;;;4375720;32;20161;-79
2020/12/04 01:35:05;;;;;;;5.23;4.60;;;;;;;;;;4361871;32;20154;-79
2020/12/04 01:37:30;;;;;;;6.50;4.47;;;;;;;;;;4362360;32;20182;-79
2020/12/04 01:39:56;;;;;;;5.97;4.67;;;;;;;;;;4362166;32;20155;-79
2020/12/04 01:42:21;;;;;;;5.40;4.40;;;;;;;;;;4363247;32;20171;-79
2020/12/04 01:44:47;;;;;;;4.97;4.23;;;;;;;;;;4376189;32;20130;-79
2020/12/04 01:47:12;;;;;;;5.37;4.50;;;;;;;;;;4361938;32;20574;-78
2020/12/04 01:49:37;;;;;;;5.20;4.10;;;;;;;;;;4362498;32;20200;-79
2020/12/04 01:52:03;;;;;;;5.57;4.30;;;;;;;;;;4361996;32;20232;-78
2020/12/04 01:54:29;;;;;;;5.77;4.20;;;;;;;;;;4361950;32;20154;-79
2020/12/04 01:57:02;;;;;;;5.50;4.07;;;;;;;;;;4376533;32;20131;-78
2020/12/04 01:59:27;;;;;;;5.37;4.20;;;;;;;;;;4376133;32;20149;-78
2020/12/04 02:02:03;;;;;;;5.97;4.00;;;;;;;;;;4376235;32;20207;-79
2020/12/04 02:04:28;;;;;;;5.10;3.97;;;;;;;;;;4362083;32;20180;-78
2020/12/04 02:06:57;;;;;;;5.10;3.90;;;;;;;;;;4361966;32;20159;-78
2020/12/04 02:09:25;;;;;;;5.57;4.00;;;;;;;;;;4361490;32;20190;-78
2020/12/04 02:11:54;;;;;;;4.93;3.97;;;;;;;;;;4361653;32;20177;-79
2020/12/04 02:14:19;;;;;;;6.60;4.53;;;;;;;;;;4362453;32;20166;-78
2020/12/04 02:16:46;;;;;;;5.57;4.17;;;;;;;;;;4361575;32;20206;-78
2020/12/04 02:19:11;;;;;;;5.03;3.83;;;;;;;;;;4375315;32;20170;-79
2020/12/04 02:21:40;;;;;;;5.73;4.40;;;;;;;;;;4375287;32;20469;-78
2020/12/04 02:24:05;;;;;;;5.13;3.90;;;;;;;;;;4361488;32;20192;-78
2020/12/04 02:26:34;;;;;;;5.13;4.17;;;;;;;;;;4361346;32;20592;-79
2020/12/04 02:29:12;;;;;;;;;;;;;;;;;;;;;
2020/12/04 02:31:37;;;;;;;4.90;3.47;;;;;;;;;;4375436;32;20142;-79
2020/12/04 02:34:03;;;;;;;5.07;3.70;;;;;;;;;;4375316;32;20161;-79
2020/12/04 02:36:28;;;;;;;4.80;3.50;;;;;;;;;;4362106;32;20613;-79
2020/12/04 02:38:53;;;;;;;4.17;3.50;;;;;;;;;;4375866;32;20512;-78
2020/12/04 02:41:18;;;;;;;5.17;4.10;;;;;;;;;;4375322;32;20195;-78
2020/12/04 02:43:44;;;;;;;4.70;3.60;;;;;;;;;;4375645;32;20527;-78
2020/12/04 02:46:09;;;;;;;4.37;3.40;;;;;;;;;;4361044;32;20166;-79
2020/12/04 02:48:35;;;;;;;4.50;3.13;;;;;;;;;;4361408;32;20518;-79
2020/12/04 02:51:00;;;;;;;3.40;2.77;;;;;;;;;;4375082;32;20131;-79
2020/12/04 02:53:26;;;;;;;3.20;2.90;;;;;;;;;;4361660;32;20572;-78
2020/12/04 02:55:51;;;;;;;3.53;2.73;;;;;;;;;;4361391;32;20499;-79
2020/12/04 02:58:16;;;;;;;3.87;2.83;;;;;;;;;;4375788;32;20586;-78
2020/12/04 03:00:42;;;;;;;3.97;3.13;;;;;;;;;;4361398;32;20264;-78
2020/12/04 03:03:07;;;;;;;5.00;2.97;;;;;;;;;;4375068;32;20567;-79
2020/12/04 03:05:32;;;;;;;4.70;3.03;;;;;;;;;;4361192;32;20206;-78
2020/12/04 03:07:57;;;;;;;3.93;2.63;;;;;;;;;;4361426;32;20615;-79
2020/12/04 03:10:23;;;;;;;3.83;3.10;;;;;;;;;;4374914;32;20540;-78
2020/12/04 03:12:48;;;;;;;5.03;2.70;;;;;;;;;;4374655;32;20505;-78
2020/12/04 03:15:14;;;;;;;4.00;2.50;;;;;;;;;;4360912;32;20197;-78
2020/12/04 03:17:39;;;;;;;3.23;2.53;;;;;;;;;;4360748;32;20166;-78
2020/12/04 03:20:05;;;;;;;3.43;2.73;;;;;;;;;;4361498;32;20216;-78
2020/12/04 03:22:30;;;;;;;2.80;2.40;;;;;;;;;;4361514;32;20154;-78
2020/12/04 03:24:55;;;;;;;3.10;2.70;;;;;;;;;;4360775;32;20163;-78
2020/12/04 03:27:31;;;;;;;3.53;2.73;;;;;;;;;;4360839;32;20167;-78
2020/12/04 03:29:56;;;;;;;3.60;2.80;;;;;;;;;;4362137;32;20155;-78
2020/12/04 03:32:22;;;;;;;3.67;2.40;;;;;;;;;;4374872;32;20196;-78
2020/12/04 03:34:47;;;;;;;3.57;2.73;;;;;;;;;;4361288;32;20159;-78
2020/12/04 03:37:12;;;;;;;2.67;2.40;;;;;;;;;;4361381;32;20210;-78
2020/12/04 03:39:38;;;;;;;3.07;2.67;;;;;;;;;;4374963;32;20537;-78
2020/12/04 03:42:03;;;;;;;3.33;2.33;;;;;;;;;;4360802;32;20158;-78
2020/12/04 03:44:28;;;;;;;3.40;2.60;;;;;;;;;;4361454;32;20503;-78
2020/12/04 03:46:54;;;;;;;3.33;2.43;;;;;;;;;;4360532;32;20225;-78
2020/12/04 03:49:19;;;;;;;3.80;2.70;;;;;;;;;;4375029;32;20202;-78
2020/12/04 03:51:45;;;;;;;3.17;2.40;;;;;;;;;;4374838;32;20138;-78
2020/12/04 03:54:11;;;;;;;3.30;2.23;;;;;;;;;;4374761;32;20135;-78
2020/12/04 03:56:36;;;;;;;2.47;2.07;;;;;;;;;;4374725;32;20135;-78
2020/12/04 03:59:02;;;;;;;2.40;2.20;;;;;;;;;;4363260;32;20213;-77
2020/12/04 04:01:27;;;;;;;2.97;2.50;;;;;;;;;;4377985;32;20130;-77
2020/12/04 04:03:56;;;;;;;2.83;2.10;;;;;;;;;;4363442;32;20584;-78
2020/12/04 04:06:21;;;;;;;2.53;2.07;;;;;;;;;;4377271;32;20490;-78
2020/12/04 04:08:46;;;;;;;2.47;2.03;;;;;;;;;;4363341;32;20171;-78
2020/12/04 04:11:12;;;;;;;2.40;2.07;;;;;;;;;;4363473;32;20194;-78
2020/12/04 04:13:41;;;;;;;2.33;2.00;;;;;;;;;;4363551;32;20155;-78
2020/12/04 04:16:06;;;;;;;3.73;2.30;;;;;;;;;;4363412;32;20199;-78
2020/12/04 04:18:32;;;;;;;2.73;1.90;;;;;;;;;;4363252;32;20182;-78
2020/12/04 04:20:57;;;;;;;3.07;2.00;;;;;;;;;;4376899;32;20134;-78
2020/12/04 04:23:23;;;;;;;2.27;1.63;;;;;;;;;;4377638;32;20522;-78
2020/12/04 04:25:48;;;;;;;2.73;1.60;;;;;;;;;;4376778;32;20229;-78
2020/12/04 04:28:13;;;;;;;2.23;1.80;;;;;;;;;;4377329;32;20181;-78
2020/12/04 04:30:39;;;;;;;3.53;1.60;;;;;;;;;;4363203;32;20170;-78
2020/12/04 04:33:04;;;;;;;2.80;1.87;;;;;;;;;;4376707;32;20185;-78
2020/12/04 04:35:30;;;;;;;2.90;1.50;;;;;;;;;;4376564;32;20142;-78
2020/12/04 04:37:55;;;;;;;2.50;1.80;;;;;;;;;;4376938;32;20135;-78
2020/12/04 04:40:21;;;;;;;2.20;1.60;;;;;;;;;;4362925;32;20484;-80
2020/12/04 04:43:04;;;;;;;2.23;1.70;;;;;;;;;;4363409;32;20645;-79
2020/12/04 04:45:30;;;;;;;1.70;1.40;;;;;;;;;;4376937;32;20467;-78
2020/12/04 04:48:00;;;;;;;4.33;1.50;;;;;;;;;;4376305;32;20159;-78
2020/12/04 04:50:25;;;;;;;2.30;1.67;;;;;;;;;;4363097;32;20184;-78
2020/12/04 04:52:51;;;;;;;2.53;1.80;;;;;;;;;;4377011;32;20452;-78
2020/12/04 04:55:16;;;;;;;1.73;1.40;;;;;;;;;;4362773;32;20159;-78
2020/12/04 04:57:42;;;;;;;3.90;1.60;;;;;;;;;;4362905;32;20194;-78
2020/12/04 05:00:07;;;;;;;2.50;1.83;;;;;;;;;;4363145;32;20233;-79
2020/12/04 05:02:32;;;;;;;2.13;1.60;;;;;;;;;;4376733;32;20171;-78
2020/12/04 05:04:58;;;;;;;2.57;1.73;;;;;;;;;;4376291;32;20135;-78
2020/12/04 05:07:27;;;;;;;1.60;1.50;;;;;;;;;;4376446;32;20466;-78
2020/12/04 05:09:53;;;;;;;2.47;1.77;;;;;;;;;;4362274;32;20198;-78
2020/12/04 05:12:19;;;;;;;1.70;1.60;;;;;;;;;;4377497;32;20135;-78
2020/12/04 05:14:46;;;;;;;3.67;1.90;;;;;;;;;;4362295;32;20594;-78
2020/12/04 05:17:12;;;;;;;2.00;1.50;;;;;;;;;;4362385;32;20230;-78
2020/12/04 05:19:38;;;;;;;3.03;1.43;;;;;;;;;;4376251;32;20412;-78
2020/12/04 05:22:16;;;;;;;2.13;1.83;;;;;;;;;;4362497;32;20201;-78
2020/12/04 05:24:42;;;;;;;2.40;1.60;;;;;;;;;;4361437;32;20217;-79
2020/12/04 05:27:40;;;;;;;5.53;2.00;;;;;;;;;;4347456;33;20186;-79
2020/12/04 05:30:06;;;;;;;2.50;1.50;;;;;;;;;;4322903;33;20247;-79
2020/12/04 05:32:31;;;;;;;1.70;1.57;;;;;;;;;;4347511;33;20160;-79
2020/12/04 05:35:07;;;;;;;2.10;1.70;;;;;;;;;;4361565;32;20193;-79
2020/12/04 05:37:32;;;;;;;1.67;1.47;;;;;;;;;;4360672;32;20458;-78
2020/12/04 05:39:57;;;;;;;3.13;1.50;;;;;;;;;;4347334;33;20272;-79
2020/12/04 05:42:36;;;;;;;1.87;1.33;;;;;;;;;;4361612;32;20195;-79
2020/12/04 05:45:03;;;;;;;2.73;1.57;;;;;;;;;;4348523;33;20158;-78
2020/12/04 05:47:39;;;;;;;2.40;1.50;;;;;;;;;;4347702;33;20171;-78
2020/12/04 05:50:05;;;;;;;1.60;1.43;;;;;;;;;;4347844;33;20528;-78
2020/12/04 05:52:32;;;;;;;3.27;1.67;;;;;;;;;;4347533;33;20178;-78
2020/12/04 05:54:58;;;;;;;1.73;1.40;;;;;;;;;;4347767;33;20193;-78
2020/12/04 05:57:32;;;;;;;1.73;1.40;;;;;;;;;;4347463;33;20167;-79
2020/12/04 05:59:58;;;;;;;1.40;1.17;;;;;;;;;;4352254;32;20159;-78
2020/12/04 06:02:24;;;;;;;4.80;4.40;;;;;;;;;;4361752;32;20538;-78
2020/12/04 06:04:51;;;;;;;5.23;1.67;;;;;;;;;;4361935;32;20159;-79
2020/12/04 06:07:20;;;;;;;2.73;2.03;;;;;;;;;;4361659;32;20189;-79
2020/12/04 06:09:45;;;;;;;1.33;1.20;;;;;;;;;;4375648;32;20169;-78
2020/12/04 06:12:16;;;;;;;2.20;1.30;;;;;;;;;;4362073;32;20158;-78
2020/12/04 06:14:41;;;;;;;2.50;1.43;;;;;;;;;;4361553;32;20154;-78
2020/12/04 06:17:10;;;;;;;2.00;1.00;;;;;;;;;;4361601;32;20466;-78
2020/12/04 06:19:37;;;;;;;1.80;1.20;;;;;;;;;;4362508;32;20173;-79
2020/12/04 06:22:08;;;;;;;1.93;1.60;;;;;;;;;;4360957;32;20201;-78
2020/12/04 06:25:01;;;;;;;1.90;1.33;;;;;;;;;;4361458;32;20173;-78
2020/12/04 06:27:39;;;;;;;2.27;1.10;;;;;;;;;;4353410;32;20224;-78
2020/12/04 06:30:05;;;;;;;2.27;1.30;;;;;;;;;;4375228;32;20127;-78
2020/12/04 06:32:37;;;;;;;1.50;1.20;;;;;;;;;;4375578;32;20169;-77
2020/12/04 06:35:03;;;;;;;1.50;1.00;;;;;;;;;;4361649;32;20154;-76
2020/12/04 06:37:32;;;;;;;2.83;0.83;;;;;;;;;;4361174;32;20171;-79
2020/12/04 06:40:18;;;;;;;0.80;0.67;;;;;;;;;;4375144;32;20201;-77
2020/12/04 06:42:43;;;;;;;1.80;0.60;;;;;;;;;;4375581;32;20174;-77
2020/12/04 06:45:10;;;;;;;1.00;0.50;;;;;;;;;;4375380;32;20480;-77
2020/12/04 06:47:35;;;;;;;0.67;0.47;;;;;;;;;;4375094;32;20205;-78
2020/12/04 06:50:01;;;;;;;1.10;0.50;;;;;;;;;;4361159;32;20582;-78
2020/12/04 06:52:26;;;;;;;2.07;0.60;;;;;;;;;;4361934;32;20611;-78
2020/12/04 06:54:52;;;;;;;0.50;0.40;;;;;;;;;;4374992;32;20189;-76
2020/12/04 06:57:21;;;;;;;0.77;0.50;;;;;;;;;;4375503;32;20450;-78
2020/12/04 06:59:46;;;;;;;0.87;0.50;;;;;;;;;;4361146;32;20159;-76
2020/12/04 07:02:16;;;;;;;0.70;0.50;;;;;;;;;;4361225;32;20198;-77
2020/12/04 07:04:49;;;;;;;2.27;0.60;;;;;;;;;;4361773;32;20185;-79
2020/12/04 07:07:27;;;;;;;0.77;0.40;;;;;;;;;;4374806;32;20138;-78
2020/12/04 07:09:57;;;;;;;0.50;0.40;;;;;;;;;;4361260;32;20197;-79
2020/12/04 07:12:23;;;;;;;0.80;0.40;;;;;;;;;;4374581;32;20204;-78
2020/12/04 07:14:49;;;;;;;1.03;0.50;;;;;;;;;;4374387;32;20154;-78
2020/12/04 07:17:19;;;;;;;1.15;0.50;;;;;;;;;;4361241;32;20178;-78
2020/12/04 07:19:47;;;;;;;0.90;0.47;;;;;;;;;;4374485;32;20512;-78
2020/12/04 07:22:16;;;;;;;0.60;0.43;;;;;;;;;;4360613;32;20244;-78
2020/12/04 07:24:42;;;;;;;2.03;1.10;;;;;;;;;;4374913;32;20127;-78
2020/12/04 07:27:16;;;;;;;4.53;1.20;;;;;;;;;;4375181;32;20197;-78
2020/12/04 07:29:42;;;;;;;2.47;0.60;;;;;;;;;;4361187;32;20299;-78
2020/12/04 07:32:07;;;;;;;0.93;0.60;;;;;;;;;;4361260;32;20586;-78
2020/12/04 07:34:37;;;;;;;0.83;0.50;;;;;;;;;;4363099;32;20194;-77
2020/12/04 07:37:03;;;;;;;2.67;0.67;;;;;;;;;;4363824;32;20183;-78
2020/12/04 07:39:30;;;;;;;0.70;0.50;;;;;;;;;;4377716;32;20130;-78
2020/12/04 07:41:56;;;;;;;0.80;0.50;;;;;;;;;;4364266;32;20189;-77
2020/12/04 07:44:41;;;;;;;0.53;0.53;;;;;;;;;;4363410;32;20520;-78
2020/12/04 07:47:08;;;;;;;1.83;0.50;;;;;;;;;;4363752;32;20171;-78
2020/12/04 07:49:34;;;;;;;1.90;0.70;;;;;;;;;;4377737;32;20266;-78
2020/12/04 07:52:25;;;;;;;2.00;0.70;;;;;;;;;;4377112;32;20166;-78
2020/12/04 07:54:58;;;;;;;0.40;0.40;;;;;;;;;;4374613;32;20162;-78
2020/12/04 07:57:28;;;;;;;0.80;0.80;;;;;;;;;;4377881;32;20592;-77
2020/12/04 07:59:57;;;;;;;1.07;0.50;;;;;;;;;;4364493;32;20251;-78
2020/12/04 08:02:24;;;;;;;2.87;1.93;;;;;;;;;;4364017;32;20194;-78
2020/12/04 08:04:49;;;;;;;6.27;3.20;;;;;;;;;;4363930;32;20216;-78
2020/12/04 08:07:15;;;;;;;0.90;0.90;;;;;;;;;;4377154;32;20625;-78
2020/12/04 08:09:41;;;;;;;2.57;1.20;;;;;;;;;;4377946;32;20127;-78
2020/12/04 08:12:39;;;;;;;0.70;0.63;;;;;;;;;;4377744;32;20131;-78
2020/12/04 08:15:04;;;;;;;0.67;0.60;;;;;;;;;;4340934;32;20163;-78
2020/12/04 08:17:34;;;;;;;1.30;0.60;;;;;;;;;;4377346;32;20155;-77
2020/12/04 08:20:00;;;;;;;0.93;0.50;;;;;;;;;;4362995;32;20166;-78
2020/12/04 08:22:26;;;;;;;2.17;0.50;;;;;;;;;;4376831;32;20263;-78
2020/12/04 08:25:13;;;;;;;0.40;0.40;;;;;;;;;;4377320;32;20217;-77
2020/12/04 08:27:38;;;;;;;1.33;0.57;;;;;;;;;;4375624;32;20182;-78
2020/12/04 08:30:07;;;;;;;1.70;1.60;;;;;;;;;;4362867;32;20162;-77
2020/12/04 08:32:33;;;;;;;0.50;0.50;;;;;;;;;;4375837;32;20166;-78
2020/12/04 08:35:12;;;;;;;1.47;0.70;;;;;;;;;;4362228;32;20155;-78
2020/12/04 08:37:38;;;;;;;0.93;0.73;;;;;;;;;;4361937;32;20170;-76
2020/12/04 08:40:03;;;;;;;1.00;0.60;;;;;;;;;;4375965;32;20580;-78
2020/12/04 08:42:32;;;;;;;0.70;0.70;;;;;;;;;;4362308;32;20288;-78
2020/12/04 08:45:01;;;;;;;1.23;0.70;;;;;;;;;;4361969;32;20174;-78
2020/12/04 08:47:27;;;;;;;0.77;0.53;;;;;;;;;;4375125;32;20177;-78
2020/12/04 08:49:54;;;;;;;0.90;0.90;;;;;;;;;;4375432;32;20313;-78
2020/12/04 08:52:35;;;;;;;1.33;0.80;;;;;;;;;;4362300;32;20174;-77
2020/12/04 08:55:09;;;;;;;0.70;0.70;;;;;;;;;;4375541;32;20134;-77
2020/12/04 08:57:35;;;;;;;1.07;0.70;;;;;;;;;;4376303;32;20127;-78
2020/12/04 09:00:00;;;;;;;2.10;0.93;;;;;;;;;;4362020;32;20224;-77
2020/12/04 09:02:25;;;;;;;1.50;0.90;;;;;;;;;;4375264;32;20150;-74
2020/12/04 09:04:51;;;;;;;0.97;0.80;;;;;;;;;;4376068;32;20449;-78
2020/12/04 09:07:16;;;;;;;1.00;1.00;;;;;;;;;;4361920;32;20247;-78
2020/12/04 09:09:41;;;;;;;1.13;0.90;;;;;;;;;;4374277;32;20572;-77
2020/12/04 09:12:07;;;;;;;1.90;0.70;;;;;;;;;;4375356;32;20177;-78
2020/12/04 09:14:35;;;;;;;0.70;0.70;;;;;;;;;;4361786;32;20190;-77
2020/12/04 09:17:00;;;;;;;0.73;0.73;;;;;;;;;;4362035;32;20593;-77
2020/12/04 09:19:25;;;;;;;1.47;0.63;;;;;;;;;;4361472;32;20202;-78
2020/12/04 09:21:53;;;;;;;1.93;1.00;;;;;;;;;;4375989;32;20206;-77
2020/12/04 09:24:18;;;;;;;0.80;0.80;;;;;;;;;;4375176;32;20138;-78
2020/12/04 09:26:43;;;;;;;2.30;0.93;;;;;;;;;;4375407;32;20205;-77
2020/12/04 09:29:09;;;;;;;0.70;0.70;;;;;;;;;;4361045;32;20220;-77
2020/12/04 09:31:34;;;;;;;0.90;0.90;;;;;;;;;;4375301;32;20127;-77
2020/12/04 09:33:59;;;;;;;1.20;0.90;;;;;;;;;;4375543;32;20254;-76
2020/12/04 09:36:24;;;;;;;1.13;0.90;;;;;;;;;;4361870;32;20208;-77
2020/12/04 09:38:50;;;;;;;1.00;0.80;;;;;;;;;;4375991;32;20123;-77
2020/12/04 09:41:15;;;;;;;1.50;1.10;;;;;;;;;;4374973;32;20135;-77
2020/12/04 09:43:40;;;;;;;3.73;0.90;;;;;;;;;;4376190;32;20135;-77
2020/12/04 09:46:05;;;;;;;1.67;1.07;;;;;;;;;;4361670;32;20182;-77
2020/12/04 09:48:31;;;;;;;1.73;1.00;;;;;;;;;;4374541;32;20127;-77
2020/12/04 09:50:56;;;;;;;2.30;1.00;;;;;;;;;;4363872;32;20189;-76
2020/12/04 09:53:21;;;;;;;1.50;0.90;;;;;;;;;;4370206;32;20441;-77
2020/12/04 09:55:47;;;;;;;3.70;2.07;;;;;;;;;;4381549;32;20534;-80
2020/12/04 09:58:12;;;;;;;1.20;0.80;;;;;;;;;;4368039;32;20202;-77
2020/12/04 10:00:37;;;;;;;1.07;0.90;;;;;;;;;;4368484;32;20237;-76
2020/12/04 10:03:02;;;;;;;2.37;1.17;;;;;;;;;;4366904;32;20339;-77
2020/12/04 10:05:28;;;;;;;0.93;0.80;;;;;;;;;;4381850;32;20174;-77
2020/12/04 10:07:56;;;;;;;1.20;0.73;;;;;;;;;;4382169;32;20161;-77
2020/12/04 10:10:21;;;;;;;1.70;0.73;;;;;;;;;;4367001;32;20224;-77
2020/12/04 10:12:47;;;;;;;2.30;1.00;;;;;;;;;;4366919;32;20166;-78
2020/12/04 10:15:12;;;;;;;4.10;1.10;;;;;;;;;;4369941;32;20592;-77
2020/12/04 10:17:37;;;;;;;2.13;1.00;;;;;;;;;;4367728;32;20154;-78
2020/12/04 10:20:03;;;;;;;1.63;0.90;;;;;;;;;;4365427;32;20199;-75
2020/12/04 10:22:35;;;;;;;6.00;1.43;;;;;;;;;;4364460;32;20175;-77
2020/12/04 10:25:00;;;;;;;1.10;1.00;;;;;;;;;;4365350;32;20242;-77
2020/12/04 10:27:26;;;;;;;1.30;1.20;;;;;;;;;;4369484;32;20216;-77
2020/12/04 10:29:51;;;;;;;1.93;1.30;;;;;;;;;;4367315;32;20171;-77
2020/12/04 10:32:16;;;;;;;2.10;0.90;;;;;;;;;;4362523;32;20609;-78
2020/12/04 10:34:42;;;;;;;2.40;0.97;;;;;;;;;;4367835;32;20155;-76
2020/12/04 10:37:07;;;;;;;2.20;0.80;;;;;;;;;;4367622;32;20166;-77
2020/12/04 10:39:32;;;;;;;2.30;0.90;;;;;;;;;;4370962;32;20567;-78
2020/12/04 10:41:58;;;;;;;5.43;1.10;;;;;;;;;;4365860;32;20209;-76
2020/12/04 10:44:23;;;;;;;4.27;1.10;;;;;;;;;;4365614;32;20679;-77
2020/12/04 10:46:48;;;;;;;3.30;0.80;;;;;;;;;;4381309;32;20153;-75
2020/12/04 10:49:13;;;;;;;1.37;0.77;;;;;;;;;;4367247;32;20216;-78
2020/12/04 10:51:38;;;;;;;4.30;0.90;;;;;;;;;;4379470;32;20169;-78
2020/12/04 10:54:04;;;;;;;3.40;1.00;;;;;;;;;;4369662;32;20253;-77
2020/12/04 10:56:30;;;;;;;1.07;0.77;;;;;;;;;;4382414;32;20630;-77
2020/12/04 10:58:55;;;;;;;1.53;0.87;;;;;;;;;;4368468;32;20155;-77
2020/12/04 11:01:36;;;;;;;1.40;0.80;;;;;;;;;;4368602;32;20663;-76
2020/12/04 11:05:30;;;;;;;1.60;0.70;;;;;;;;;;4366639;32;20161;-76
2020/12/04 11:06:47;;;;;;;0.60;0.60;;;;;;;;;;4377666;32;20155;-78
2020/12/04 11:09:12;;;;;;;1.33;0.80;;;;;;;;;;4367977;32;20497;-78
2020/12/04 11:11:37;;;;;;;1.73;0.90;;;;;;;;;;4370120;32;20228;-77
2020/12/04 11:14:02;;;;;;;1.87;0.90;;;;;;;;;;4367172;32;20199;-77
2020/12/04 11:16:28;;;;;;;1.03;0.73;;;;;;;;;;4368301;32;20154;-77
2020/12/04 11:18:53;;;;;;;2.83;0.83;;;;;;;;;;4371303;32;20627;-79
2020/12/04 11:21:18;;;;;;;0.80;0.60;;;;;;;;;;4383196;32;20197;-78
2020/12/04 11:23:44;;;;;;;1.00;0.70;;;;;;;;;;4370579;32;20607;-77
2020/12/04 11:26:10;;;;;;;3.20;0.77;;;;;;;;;;4372889;32;20173;-77
2020/12/04 11:28:35;;;;;;;2.62;0.82;;;;;;;;;;4368979;32;20181;-77
2020/12/04 11:31:00;;;;;;;3.20;1.00;;;;;;;;;;4373464;32;20202;-78
2020/12/04 11:33:26;;;;;;;2.35;0.90;;;;;;;;;;4385934;32;20139;-77
2020/12/04 11:36:12;;;;;;;4.45;0.80;;;;;;;;;;4368603;32;20620;-78
2020/12/04 11:38:37;;;;;;;1.90;0.73;;;;;;;;;;4381873;32;20166;-77
2020/12/04 11:41:02;;;;;;;2.33;0.80;;;;;;;;;;4368762;32;20158;-77
2020/12/04 11:43:27;;;;;;;0.97;0.70;;;;;;;;;;4384889;32;20142;-78
2020/12/04 11:45:52;;;;;;;1.87;1.07;;;;;;;;;;4369849;32;20728;-77
2020/12/04 11:48:18;;;;;;;0.63;0.63;;;;;;;;;;4383742;32;20173;-78
2020/12/04 11:50:43;;;;;;;1.30;0.80;;;;;;;;;;4384883;32;20232;-77
2020/12/04 11:53:08;;;;;;;1.07;0.90;;;;;;;;;;4382358;32;20185;-78
2020/12/04 11:55:34;;;;;;;2.37;1.10;;;;;;;;;;4368873;32;20196;-79
2020/12/04 11:57:59;;;;;;;2.00;1.13;;;;;;;;;;4369093;32;20158;-78
2020/12/04 12:00:24;;;;;;;5.40;1.10;;;;;;;;;;4383656;32;20197;-79
2020/12/04 12:02:50;;;;;;;1.53;0.90;;;;;;;;;;4371209;32;20192;-78
2020/12/04 12:05:15;;;;;;;4.03;1.23;;;;;;;;;;4370446;32;20279;-77
2020/12/04 12:07:42;;;;;;;1.60;1.20;;;;;;;;;;4369446;32;20483;-78
2020/12/04 12:10:08;;;;;;;1.07;0.80;;;;;;;;;;4385692;32;20237;-78
2020/12/04 12:12:34;;;;;;;5.33;1.10;;;;;;;;;;4372284;32;20155;-76
2020/12/04 12:14:59;;;;;;;1.10;1.00;;;;;;;;;;4365113;32;20221;-80
2020/12/04 12:17:24;;;;;;;2.23;0.90;;;;;;;;;;4368275;32;20163;-78
2020/12/04 12:19:50;;;;;;;1.63;1.53;;;;;;;;;;4366999;32;20220;-78
2020/12/04 12:22:15;;;;;;;1.57;1.00;;;;;;;;;;4362404;32;20143;-78
2020/12/04 12:24:42;;;;;;;3.70;0.90;;;;;;;;;;4367985;32;20146;-78
2020/12/04 12:27:08;;;;;;;1.77;1.00;;;;;;;;;;4388414;32;20142;-78
2020/12/04 12:29:33;;;;;;;1.63;0.90;;;;;;;;;;4369312;32;20281;-78
2020/12/04 12:31:59;;;;;;;2.33;0.97;;;;;;;;;;4359825;32;20152;-78
2020/12/04 12:37:12;;;;;;;0.77;0.73;;;;;;;;;;4352158;32;20605;-77
2020/12/04 12:39:38;;;;;;;1.60;1.50;;;;;;;;;;4364452;32;20163;-78
2020/12/04 12:42:10;;;;;;;1.47;1.17;;;;;;;;;;4360343;32;20170;-78
2020/12/04 12:44:38;;;;;;;1.17;1.00;;;;;;;;;;4367102;32;20265;-78
2020/12/04 12:47:07;;;;;;;1.37;1.20;;;;;;;;;;4361945;32;20206;-78
2020/12/04 12:49:36;;;;;;;1.57;1.20;;;;;;;;;;4361580;32;20182;-78
2020/12/04 12:52:02;;;;;;;2.47;1.60;;;;;;;;;;4362087;32;20151;-78
2020/12/04 12:54:30;;;;;;;1.93;1.37;;;;;;;;;;4362715;32;20292;-79
2020/12/04 12:56:56;;;;;;;1.10;1.00;;;;;;;;;;4362571;32;20156;-79
2020/12/04 12:59:25;;;;;;;4.47;1.60;;;;;;;;;;4362538;32;20178;-80
2020/12/04 13:01:52;;;;;;;1.40;1.10;;;;;;;;;;4370289;32;20190;-79
2020/12/04 13:04:18;;;;;;;3.00;1.40;;;;;;;;;;4390877;32;20249;-79
2020/12/04 13:06:44;;;;;;;2.70;1.47;;;;;;;;;;4363258;32;20294;-80
2020/12/04 13:09:13;;;;;;;1.80;1.10;;;;;;;;;;4391118;32;20146;-79
2020/12/04 13:11:38;;;;;;;1.43;1.20;;;;;;;;;;4371605;32;20204;-78
2020/12/04 13:14:04;;;;;;;2.00;1.10;;;;;;;;;;4361711;32;20496;-78
2020/12/04 13:16:29;;;;;;;1.30;1.20;;;;;;;;;;4367752;32;20261;-78
2020/12/04 13:18:54;;;;;;;1.50;1.20;;;;;;;;;;4369128;32;20226;-78
2020/12/04 13:21:19;;;;;;;1.40;1.10;;;;;;;;;;4367045;32;20197;-78
2020/12/04 13:23:45;;;;;;;2.57;1.47;;;;;;;;;;4368395;32;20490;-78
2020/12/04 13:26:37;;;;;;;2.57;1.90;;;;;;;;;;4367280;32;20481;-78
2020/12/04 13:28:55;;;;;;;1.93;1.80;;;;;;;;;;4391126;32;20166;-78
2020/12/04 13:31:20;;;;;;;2.13;1.60;;;;;;;;;;4376338;32;20155;-78
2020/12/04 13:33:46;;;;;;;5.13;1.90;;;;;;;;;;4360705;32;20521;-78
2020/12/04 13:36:11;;;;;;;2.20;1.27;;;;;;;;;;4374080;32;20583;-79
2020/12/04 13:38:36;;;;;;;1.20;1.10;;;;;;;;;;4375626;32;20166;-78
2020/12/04 13:41:02;;;;;;;1.70;1.60;;;;;;;;;;4363303;32;20233;-78
2020/12/04 13:43:27;;;;;;;1.20;1.10;;;;;;;;;;4359406;32;20229;-78
2020/12/04 13:45:53;;;;;;;1.73;1.23;;;;;;;;;;4358859;33;20190;-78
2020/12/04 13:48:18;;;;;;;1.93;1.10;;;;;;;;;;4358627;32;20537;-78
2020/12/04 13:50:44;;;;;;;2.07;1.33;;;;;;;;;;4358034;32;20248;-78
2020/12/04 13:53:09;;;;;;;1.43;1.23;;;;;;;;;;4353257;33;20541;-78
2020/12/04 13:55:34;;;;;;;2.67;1.30;;;;;;;;;;4359036;32;20521;-78
2020/12/04 13:58:00;;;;;;;2.37;1.50;;;;;;;;;;4345160;33;20229;-78
2020/12/04 14:00:25;;;;;;;2.30;1.30;;;;;;;;;;4358712;32;20523;-77
2020/12/04 14:02:50;;;;;;;1.97;1.20;;;;;;;;;;4359894;32;20127;-80
2020/12/04 14:05:15;;;;;;;4.40;1.40;;;;;;;;;;4360159;32;20519;-78
2020/12/04 14:07:41;;;;;;;3.87;1.10;;;;;;;;;;4346092;33;20197;-78
2020/12/04 14:10:06;;;;;;;1.33;1.17;;;;;;;;;;4346149;33;20163;-78
2020/12/04 14:12:31;;;;;;;2.60;0.93;;;;;;;;;;4346767;33;20233;-78
2020/12/04 14:14:57;;;;;;;4.60;1.00;;;;;;;;;;4345760;33;20469;-77
2020/12/04 14:17:28;;;;;;;1.90;1.10;;;;;;;;;;4346741;33;20501;-78
2020/12/04 14:19:53;;;;;;;2.10;1.03;;;;;;;;;;4360092;32;20260;-78
2020/12/04 14:22:19;;;;;;;1.37;0.87;;;;;;;;;;4360269;32;20445;-78
2020/12/04 14:24:44;;;;;;;1.60;0.70;;;;;;;;;;4346764;33;20199;-77
2020/12/04 14:27:09;;;;;;;1.57;0.80;;;;;;;;;;4361253;32;20538;-78
2020/12/04 14:29:35;;;;;;;1.73;0.63;;;;;;;;;;4363800;32;20243;-78
2020/12/04 14:32:00;;;;;;;2.33;0.90;;;;;;;;;;4360672;32;20166;-83
2020/12/04 14:34:25;;;;;;;4.23;1.07;;;;;;;;;;4360712;32;20679;-78
2020/12/04 14:36:50;;;;;;;2.13;0.90;;;;;;;;;;4361305;32;20155;-78
2020/12/04 14:39:16;;;;;;;1.00;0.80;;;;;;;;;;4375332;32;20502;-78
2020/12/04 14:41:41;;;;;;;2.10;0.80;;;;;;;;;;4361003;32;20516;-78
2020/12/04 14:44:07;;;;;;;1.30;0.80;;;;;;;;;;4361372;32;20233;-78